Time;durP1;ratioP1;P1;durP2;ratioP2;P2;SDS_P1;SDS_P2;PMS_P1;PMS_P2;Temp;Humidity;BMP_temperature;BMP_pressure;BME280_temperature;BME280_humidity;BME280_pressure;Samples;Min_cycle;Max_cycle;Signal;HPM_P1;HPM_P2
2022/03/11 00:02:21;;;;;;;11.57;6.38;;;;;;;;;;5003780;28;20438;-69
2022/03/11 00:04:47;;;;;;;16.50;6.55;;;;;;;;;;5003568;28;20042;-71
2022/03/11 00:07:14;;;;;;;20.20;7.80;;;;;;;;;;5008748;28;20146;-72
2022/03/11 00:09:40;;;;;;;15.10;6.35;;;;;;;;;;5004381;28;20152;-75
2022/03/11 00:12:07;;;;;;;11.75;6.18;;;;;;;;;;5003111;28;20050;-72
2022/03/11 00:14:35;;;;;;;13.85;6.32;;;;;;;;;;5005477;28;20060;-71
2022/03/11 00:17:02;;;;;;;15.50;7.07;;;;;;;;;;5008064;28;20057;-69
2022/03/11 00:19:28;;;;;;;13.68;6.78;;;;;;;;;;4998531;28;20063;-68
2022/03/11 00:21:55;;;;;;;13.80;6.18;;;;;;;;;;5003894;28;20648;-74
2022/03/11 00:24:22;;;;;;;13.00;6.45;;;;;;;;;;5009952;28;20058;-68
2022/03/11 00:26:48;;;;;;;11.30;5.85;;;;;;;;;;5010829;28;20493;-75
2022/03/11 00:29:14;;;;;;;15.20;6.45;;;;;;;;;;5003578;28;20050;-72
2022/03/11 00:31:40;;;;;;;13.18;6.05;;;;;;;;;;5003404;28;20062;-71
2022/03/11 00:34:06;;;;;;;14.60;6.13;;;;;;;;;;5005423;28;20069;-68
2022/03/11 00:36:32;;;;;;;12.32;5.65;;;;;;;;;;5003278;28;20086;-77
2022/03/11 00:38:58;;;;;;;17.17;6.22;;;;;;;;;;5000012;28;20111;-67
2022/03/11 00:41:24;;;;;;;13.20;5.97;;;;;;;;;;5002121;28;20046;-69
2022/03/11 00:43:50;;;;;;;16.35;6.03;;;;;;;;;;4999308;28;20045;-74
2022/03/11 00:46:16;;;;;;;12.77;6.20;;;;;;;;;;5001908;28;20042;-68
2022/03/11 00:48:42;;;;;;;17.30;6.57;;;;;;;;;;5006882;28;20062;-74
2022/03/11 00:51:08;;;;;;;19.70;6.63;;;;;;;;;;5007602;28;20049;-70
2022/03/11 00:53:34;;;;;;;16.95;6.35;;;;;;;;;;5004781;28;20069;-67
2022/03/11 00:56:00;;;;;;;12.40;5.35;;;;;;;;;;5001864;28;20442;-69
2022/03/11 00:58:25;;;;;;;15.00;6.05;;;;;;;;;;5000442;28;20495;-72
2022/03/11 01:00:51;;;;;;;11.60;5.68;;;;;;;;;;5006145;28;20058;-71
2022/03/11 01:03:18;;;;;;;17.27;6.65;;;;;;;;;;5003909;28;20412;-77
2022/03/11 01:05:43;;;;;;;11.73;6.35;;;;;;;;;;5006129;28;20058;-72
2022/03/11 01:08:09;;;;;;;16.65;6.68;;;;;;;;;;5005825;28;20153;-72
2022/03/11 01:10:35;;;;;;;12.80;5.93;;;;;;;;;;5009037;28;20080;-70
2022/03/11 01:13:01;;;;;;;16.15;6.38;;;;;;;;;;5008214;28;20054;-70
2022/03/11 01:15:27;;;;;;;17.90;6.05;;;;;;;;;;5010009;28;20060;-72
2022/03/11 01:17:54;;;;;;;14.52;6.60;;;;;;;;;;5006308;28;20536;-69
2022/03/11 01:20:19;;;;;;;11.25;6.28;;;;;;;;;;5008491;28;20968;-75
2022/03/11 01:22:45;;;;;;;19.48;6.97;;;;;;;;;;5010963;28;20562;-75
2022/03/11 01:25:11;;;;;;;20.88;6.82;;;;;;;;;;5007382;28;20042;-70
2022/03/11 01:27:37;;;;;;;14.13;6.03;;;;;;;;;;5007200;28;20049;-73
2022/03/11 01:30:09;;;;;;;20.02;7.13;;;;;;;;;;5007892;28;20095;-69
2022/03/11 01:32:36;;;;;;;13.60;6.85;;;;;;;;;;5005633;28;20054;-72
2022/03/11 01:35:02;;;;;;;19.23;6.72;;;;;;;;;;5006902;28;20136;-69
2022/03/11 01:37:28;;;;;;;19.02;6.28;;;;;;;;;;5005285;28;20942;-72
2022/03/11 01:39:54;;;;;;;18.40;5.70;;;;;;;;;;5006596;28;20140;-72
2022/03/11 01:42:20;;;;;;;10.10;5.35;;;;;;;;;;5005743;28;20041;-71
2022/03/11 01:44:46;;;;;;;15.73;5.38;;;;;;;;;;5003342;28;20076;-76
2022/03/11 01:47:12;;;;;;;12.02;5.50;;;;;;;;;;5005728;28;20061;-73
2022/03/11 01:49:39;;;;;;;15.07;5.85;;;;;;;;;;5005976;28;20056;-74
2022/03/11 01:52:05;;;;;;;18.15;5.40;;;;;;;;;;5004368;28;20061;-76
2022/03/11 01:54:31;;;;;;;18.10;6.53;;;;;;;;;;5008307;28;20596;-67
2022/03/11 01:56:57;;;;;;;14.13;6.10;;;;;;;;;;5003469;28;20057;-68
2022/03/11 01:59:23;;;;;;;13.55;6.15;;;;;;;;;;5004850;28;20049;-72
2022/03/11 02:01:49;;;;;;;21.13;6.72;;;;;;;;;;5000942;28;20067;-74
2022/03/11 02:04:15;;;;;;;16.83;7.85;;;;;;;;;;5001110;28;20490;-73
2022/03/11 02:06:40;;;;;;;16.55;8.00;;;;;;;;;;4999638;28;20042;-75
2022/03/11 02:09:06;;;;;;;18.33;8.25;;;;;;;;;;5002764;28;20111;-70
2022/03/11 02:11:32;;;;;;;19.73;9.30;;;;;;;;;;5003816;28;20490;-72
2022/03/11 02:14:00;;;;;;;16.30;8.70;;;;;;;;;;5006099;28;20471;-73
2022/03/11 02:16:28;;;;;;;17.15;9.45;;;;;;;;;;5004898;28;20458;-69
2022/03/11 02:18:54;;;;;;;16.58;9.05;;;;;;;;;;5000180;28;20117;-70
2022/03/11 02:21:21;;;;;;;17.80;9.48;;;;;;;;;;5009554;28;20058;-75
2022/03/11 02:23:51;;;;;;;16.10;9.00;;;;;;;;;;5009714;28;20461;-73
2022/03/11 02:26:19;;;;;;;17.77;8.95;;;;;;;;;;5007814;28;20527;-75
2022/03/11 02:28:46;;;;;;;15.75;9.27;;;;;;;;;;5005177;28;20048;-75
2022/03/11 02:31:13;;;;;;;22.15;9.55;;;;;;;;;;5005846;28;20067;-72
2022/03/11 02:33:39;;;;;;;19.17;9.43;;;;;;;;;;5003948;28;20568;-74
2022/03/11 02:36:06;;;;;;;17.30;9.43;;;;;;;;;;5008605;28;20100;-70
2022/03/11 02:38:32;;;;;;;20.10;9.32;;;;;;;;;;5001889;28;20061;-69
2022/03/11 02:40:59;;;;;;;17.88;9.18;;;;;;;;;;5005819;28;20057;-68
2022/03/11 02:43:25;;;;;;;18.58;9.68;;;;;;;;;;5002202;28;20511;-68
2022/03/11 02:45:51;;;;;;;23.88;9.50;;;;;;;;;;5000604;28;20858;-71
2022/03/11 02:48:17;;;;;;;16.85;9.35;;;;;;;;;;4998314;28;20049;-74
2022/03/11 02:50:44;;;;;;;15.23;8.88;;;;;;;;;;5001496;28;20054;-74
2022/03/11 02:53:10;;;;;;;18.52;9.43;;;;;;;;;;5003529;28;20050;-73
2022/03/11 02:55:36;;;;;;;18.33;9.80;;;;;;;;;;5004972;28;20065;-71
2022/03/11 02:58:02;;;;;;;21.75;9.38;;;;;;;;;;5001758;28;20046;-69
2022/03/11 03:00:28;;;;;;;15.13;9.20;;;;;;;;;;5002618;28;20050;-69
2022/03/11 03:02:54;;;;;;;18.02;9.90;;;;;;;;;;5004277;28;20128;-72
2022/03/11 03:05:20;;;;;;;17.13;8.38;;;;;;;;;;5003966;28;20450;-71
2022/03/11 03:07:46;;;;;;;15.45;8.73;;;;;;;;;;5002342;28;20046;-70
2022/03/11 03:10:12;;;;;;;18.55;8.40;;;;;;;;;;5004613;28;20115;-75
2022/03/11 03:12:38;;;;;;;16.35;8.52;;;;;;;;;;5006915;28;20089;-71
2022/03/11 03:15:06;;;;;;;16.08;9.23;;;;;;;;;;5005394;28;20066;-73
2022/03/11 03:17:32;;;;;;;20.33;9.05;;;;;;;;;;4999639;28;20061;-73
2022/03/11 03:19:57;;;;;;;17.85;9.02;;;;;;;;;;5001981;28;20058;-72
2022/03/11 03:22:24;;;;;;;15.18;8.50;;;;;;;;;;5001326;28;20053;-66
2022/03/11 03:24:49;;;;;;;21.15;9.63;;;;;;;;;;5001185;28;20060;-71
2022/03/11 03:27:16;;;;;;;17.88;9.32;;;;;;;;;;5000689;28;20127;-73
2022/03/11 03:29:42;;;;;;;22.05;9.18;;;;;;;;;;5001174;28;20113;-75
2022/03/11 03:32:08;;;;;;;20.23;8.90;;;;;;;;;;5001251;28;20050;-74
2022/03/11 03:34:36;;;;;;;19.83;9.63;;;;;;;;;;5004260;28;20144;-75
2022/03/11 03:37:09;;;;;;;21.25;9.55;;;;;;;;;;5003073;28;20045;-67
2022/03/11 03:39:36;;;;;;;20.10;8.75;;;;;;;;;;4999797;28;20057;-67
2022/03/11 03:42:02;;;;;;;21.95;9.70;;;;;;;;;;5002065;28;21096;-72
2022/03/11 03:44:28;;;;;;;15.82;10.02;;;;;;;;;;5001838;28;20053;-67
2022/03/11 03:46:54;;;;;;;20.80;10.15;;;;;;;;;;4999983;28;20054;-71
2022/03/11 03:49:20;;;;;;;18.73;10.10;;;;;;;;;;5000934;28;20123;-73
2022/03/11 03:51:46;;;;;;;15.07;8.95;;;;;;;;;;5000665;28;20639;-70
2022/03/11 03:54:12;;;;;;;18.42;9.25;;;;;;;;;;5001380;28;20046;-75
2022/03/11 03:56:39;;;;;;;27.20;10.35;;;;;;;;;;5000126;28;20056;-74
2022/03/11 03:59:07;;;;;;;17.92;10.57;;;;;;;;;;4999959;28;20503;-67
2022/03/11 04:01:34;;;;;;;22.13;9.52;;;;;;;;;;5004513;28;20377;-73
2022/03/11 04:04:00;;;;;;;21.98;9.93;;;;;;;;;;5005963;28;20156;-71
2022/03/11 04:06:28;;;;;;;18.95;10.20;;;;;;;;;;5007114;28;20057;-69
2022/03/11 04:08:56;;;;;;;16.58;9.82;;;;;;;;;;5001099;28;20515;-67
2022/03/11 04:11:23;;;;;;;15.60;9.50;;;;;;;;;;5004353;28;20080;-74
2022/03/11 04:13:50;;;;;;;16.92;10.32;;;;;;;;;;5002566;28;20119;-73
2022/03/11 04:16:17;;;;;;;17.50;10.18;;;;;;;;;;5004651;28;20052;-69
2022/03/11 04:18:43;;;;;;;19.45;10.77;;;;;;;;;;4998838;28;20054;-71
2022/03/11 04:21:09;;;;;;;18.33;9.88;;;;;;;;;;5002174;28;20551;-71
2022/03/11 04:23:34;;;;;;;18.17;9.77;;;;;;;;;;5001554;28;20924;-72
2022/03/11 04:26:01;;;;;;;18.33;9.60;;;;;;;;;;5003859;28;20560;-73
2022/03/11 04:28:27;;;;;;;28.38;10.77;;;;;;;;;;4999492;28;20416;-69
2022/03/11 04:30:53;;;;;;;16.17;10.25;;;;;;;;;;4996593;28;20054;-68
2022/03/11 04:33:20;;;;;;;19.08;9.73;;;;;;;;;;4998314;28;20379;-75
2022/03/11 04:35:46;;;;;;;19.33;9.32;;;;;;;;;;5001650;28;20076;-70
2022/03/11 04:38:12;;;;;;;18.85;9.93;;;;;;;;;;4996521;28;20045;-71
2022/03/11 04:40:38;;;;;;;18.45;9.85;;;;;;;;;;5002258;28;20058;-74
2022/03/11 04:43:04;;;;;;;20.48;10.70;;;;;;;;;;5005901;28;20567;-70
2022/03/11 04:45:31;;;;;;;21.27;11.13;;;;;;;;;;5000016;28;20061;-69
2022/03/11 04:47:57;;;;;;;20.25;10.35;;;;;;;;;;5006609;28;20069;-68
2022/03/11 04:50:23;;;;;;;16.23;9.95;;;;;;;;;;5010429;28;20441;-68
2022/03/11 04:52:48;;;;;;;18.05;10.18;;;;;;;;;;5007339;28;20077;-70
2022/03/11 04:55:16;;;;;;;20.45;10.38;;;;;;;;;;5010687;28;20054;-73
2022/03/11 04:57:45;;;;;;;16.52;10.10;;;;;;;;;;5003767;28;20058;-70
2022/03/11 05:00:12;;;;;;;19.27;10.80;;;;;;;;;;5009034;28;20054;-71
2022/03/11 05:02:40;;;;;;;18.33;10.30;;;;;;;;;;5006715;28;20121;-71
2022/03/11 05:05:07;;;;;;;16.75;9.65;;;;;;;;;;5010819;28;20057;-66
2022/03/11 05:07:34;;;;;;;19.50;10.63;;;;;;;;;;5005167;28;20148;-72
2022/03/11 05:10:00;;;;;;;21.92;10.95;;;;;;;;;;5007204;28;20104;-72
2022/03/11 05:12:26;;;;;;;23.27;10.52;;;;;;;;;;5004476;28;20064;-68
2022/03/11 05:14:52;;;;;;;19.20;10.77;;;;;;;;;;5003827;28;20046;-75
2022/03/11 05:17:18;;;;;;;18.55;10.43;;;;;;;;;;5004173;28;20526;-74
2022/03/11 05:19:44;;;;;;;22.52;11.23;;;;;;;;;;5006026;28;20114;-74
2022/03/11 05:22:11;;;;;;;19.70;10.05;;;;;;;;;;5005270;28;20050;-72
2022/03/11 05:24:38;;;;;;;21.73;11.48;;;;;;;;;;5005664;28;20049;-72
2022/03/11 05:27:05;;;;;;;18.60;10.80;;;;;;;;;;5004460;28;20585;-70
2022/03/11 05:29:35;;;;;;;20.23;10.82;;;;;;;;;;5002474;28;20065;-69
2022/03/11 05:32:02;;;;;;;17.77;10.85;;;;;;;;;;5002369;28;20688;-68
2022/03/11 05:34:28;;;;;;;18.25;10.80;;;;;;;;;;5004103;28;20053;-72
2022/03/11 05:36:54;;;;;;;15.55;11.07;;;;;;;;;;5004671;28;20049;-72
2022/03/11 05:39:20;;;;;;;20.20;11.15;;;;;;;;;;5004193;28;20104;-76
2022/03/11 05:41:46;;;;;;;17.35;11.15;;;;;;;;;;5012334;28;20042;-73
2022/03/11 05:44:16;;;;;;;19.73;11.02;;;;;;;;;;5006869;28;20053;-75
2022/03/11 05:46:43;;;;;;;24.55;11.40;;;;;;;;;;5003231;28;20065;-77
2022/03/11 05:49:09;;;;;;;26.52;12.80;;;;;;;;;;5001536;28;20631;-73
2022/03/11 05:51:35;;;;;;;16.58;10.60;;;;;;;;;;5003318;28;20057;-68
2022/03/11 05:54:01;;;;;;;20.25;10.90;;;;;;;;;;5002731;28;20561;-78
2022/03/11 05:56:27;;;;;;;23.08;12.75;;;;;;;;;;5005938;28;20064;-72
2022/03/11 05:58:53;;;;;;;19.38;11.10;;;;;;;;;;4999935;28;20037;-69
2022/03/11 06:01:19;;;;;;;20.65;11.38;;;;;;;;;;5008726;28;20105;-72
2022/03/11 06:03:47;;;;;;;29.58;12.18;;;;;;;;;;5010149;28;20605;-73
2022/03/11 06:06:14;;;;;;;18.08;10.95;;;;;;;;;;5010549;28;20122;-75
2022/03/11 06:08:40;;;;;;;22.27;12.27;;;;;;;;;;5021784;28;20054;-75
2022/03/11 06:11:06;;;;;;;23.10;12.02;;;;;;;;;;5005387;28;20641;-67
2022/03/11 06:13:32;;;;;;;23.85;11.63;;;;;;;;;;5009165;28;20066;-73
2022/03/11 06:15:58;;;;;;;23.40;10.75;;;;;;;;;;5007993;28;20060;-69
2022/03/11 06:18:24;;;;;;;23.63;11.63;;;;;;;;;;5002978;28;20045;-68
2022/03/11 06:20:51;;;;;;;23.10;11.35;;;;;;;;;;5002843;28;20057;-71
2022/03/11 06:23:17;;;;;;;24.40;11.00;;;;;;;;;;5001973;28;20056;-69
2022/03/11 06:25:43;;;;;;;22.15;11.20;;;;;;;;;;5003037;28;20470;-74
2022/03/11 06:28:08;;;;;;;19.77;11.02;;;;;;;;;;5003316;28;20051;-73
2022/03/11 06:30:35;;;;;;;25.40;11.13;;;;;;;;;;5003830;28;20054;-68
2022/03/11 06:33:01;;;;;;;26.83;11.60;;;;;;;;;;5002105;28;20513;-70
2022/03/11 06:35:27;;;;;;;25.75;12.35;;;;;;;;;;5001166;28;20446;-68
2022/03/11 06:37:54;;;;;;;19.85;10.52;;;;;;;;;;4997437;28;20049;-71
2022/03/11 06:40:21;;;;;;;20.98;11.07;;;;;;;;;;5004295;28;20049;-75
2022/03/11 06:42:48;;;;;;;25.83;12.10;;;;;;;;;;5002347;28;20052;-74
2022/03/11 06:45:16;;;;;;;24.25;11.43;;;;;;;;;;5007475;28;20080;-69
2022/03/11 06:47:42;;;;;;;24.48;11.15;;;;;;;;;;5004397;28;20073;-71
2022/03/11 06:50:09;;;;;;;27.48;11.95;;;;;;;;;;5007127;28;20073;-73
2022/03/11 06:52:35;;;;;;;25.50;11.70;;;;;;;;;;5010590;28;20682;-69
2022/03/11 06:55:03;;;;;;;23.20;11.32;;;;;;;;;;5002935;28;20104;-72
2022/03/11 06:57:31;;;;;;;20.17;11.43;;;;;;;;;;5000858;28;20121;-72
2022/03/11 06:59:56;;;;;;;22.27;11.23;;;;;;;;;;5007405;28;20061;-72
2022/03/11 07:02:22;;;;;;;20.83;11.00;;;;;;;;;;5009523;28;20133;-72
2022/03/11 07:04:48;;;;;;;27.25;11.43;;;;;;;;;;5009380;28;20107;-77
2022/03/11 07:07:15;;;;;;;28.00;11.68;;;;;;;;;;5008508;28;20136;-77
2022/03/11 07:09:40;;;;;;;26.63;11.77;;;;;;;;;;5004835;28;20055;-76
2022/03/11 07:12:07;;;;;;;18.83;11.60;;;;;;;;;;5014221;28;20621;-72
2022/03/11 07:14:35;;;;;;;21.67;11.25;;;;;;;;;;5010890;28;20746;-73
2022/03/11 07:17:05;;;;;;;26.58;11.60;;;;;;;;;;5008082;28;20275;-73
2022/03/11 07:19:32;;;;;;;22.02;11.27;;;;;;;;;;5001281;28;20050;-69
2022/03/11 07:22:00;;;;;;;22.08;11.23;;;;;;;;;;4996703;28;20897;-66
2022/03/11 07:24:26;;;;;;;25.98;11.10;;;;;;;;;;5000152;28;20046;-69
2022/03/11 07:26:53;;;;;;;21.63;12.27;;;;;;;;;;5004188;28;20542;-74
2022/03/11 07:29:19;;;;;;;29.85;13.55;;;;;;;;;;4999961;28;20058;-72
2022/03/11 07:31:46;;;;;;;20.80;11.07;;;;;;;;;;5003965;28;20061;-75
2022/03/11 07:34:12;;;;;;;23.83;11.15;;;;;;;;;;5007255;28;20053;-70
2022/03/11 07:36:38;;;;;;;26.75;11.65;;;;;;;;;;5006674;28;20515;-77
2022/03/11 07:39:05;;;;;;;27.48;12.02;;;;;;;;;;5001299;28;20085;-71
2022/03/11 07:41:32;;;;;;;30.55;11.93;;;;;;;;;;4999866;28;20060;-71
2022/03/11 07:43:59;;;;;;;41.85;12.63;;;;;;;;;;4998480;28;20147;-69
2022/03/11 07:46:27;;;;;;;28.00;12.68;;;;;;;;;;4999799;28;20402;-71
2022/03/11 07:48:54;;;;;;;32.97;11.95;;;;;;;;;;4994964;28;20068;-73
2022/03/11 07:51:20;;;;;;;29.15;12.55;;;;;;;;;;4993729;28;20056;-73
2022/03/11 07:53:46;;;;;;;31.00;12.32;;;;;;;;;;4999350;28;20094;-76
2022/03/11 07:56:14;;;;;;;39.05;13.85;;;;;;;;;;5002929;28;20053;-73
2022/03/11 07:58:41;;;;;;;25.92;12.05;;;;;;;;;;4993684;28;20767;-76
2022/03/11 08:01:12;;;;;;;32.60;13.15;;;;;;;;;;4998196;28;20441;-75
2022/03/11 08:03:39;;;;;;;35.88;13.05;;;;;;;;;;5000941;28;20053;-76
2022/03/11 08:06:08;;;;;;;28.52;12.57;;;;;;;;;;4997719;28;20556;-70
2022/03/11 08:08:35;;;;;;;31.30;12.85;;;;;;;;;;4995002;28;20128;-73
2022/03/11 08:11:01;;;;;;;31.00;13.52;;;;;;;;;;4997710;28;20058;-72
2022/03/11 08:13:27;;;;;;;24.85;12.65;;;;;;;;;;4997548;28;20049;-73
2022/03/11 08:15:54;;;;;;;26.80;13.23;;;;;;;;;;5006243;28;20053;-71
2022/03/11 08:18:21;;;;;;;22.95;13.48;;;;;;;;;;4998341;28;20044;-74
2022/03/11 08:20:48;;;;;;;27.00;13.50;;;;;;;;;;5001685;28;20079;-76
2022/03/11 08:23:14;;;;;;;29.92;14.00;;;;;;;;;;5002866;28;20053;-72
2022/03/11 08:25:41;;;;;;;34.10;13.18;;;;;;;;;;5003090;28;20750;-77
2022/03/11 08:28:10;;;;;;;30.52;14.25;;;;;;;;;;5001978;28;20377;-74
2022/03/11 08:30:42;;;;;;;31.88;14.27;;;;;;;;;;4999965;28;20050;-72
2022/03/11 08:33:10;;;;;;;30.88;13.50;;;;;;;;;;4999647;28;20176;-74
2022/03/11 08:35:36;;;;;;;22.30;13.65;;;;;;;;;;5000005;28;20647;-69
2022/03/11 08:38:06;;;;;;;28.90;13.90;;;;;;;;;;4998018;28;21072;-74
2022/03/11 08:40:35;;;;;;;31.65;13.80;;;;;;;;;;5005092;28;20053;-74
2022/03/11 08:43:02;;;;;;;25.27;12.57;;;;;;;;;;5002054;28;20165;-71
2022/03/11 08:45:28;;;;;;;40.97;14.48;;;;;;;;;;5002303;28;20419;-72
2022/03/11 08:47:54;;;;;;;31.42;14.30;;;;;;;;;;5000768;28;20059;-70
2022/03/11 08:50:21;;;;;;;34.53;14.77;;;;;;;;;;5001840;28;20452;-73
2022/03/11 08:52:47;;;;;;;23.63;14.57;;;;;;;;;;5002785;28;20053;-76
2022/03/11 08:55:14;;;;;;;29.63;13.27;;;;;;;;;;4998600;28;20052;-73
2022/03/11 08:57:40;;;;;;;35.25;14.98;;;;;;;;;;5001663;28;21117;-76
2022/03/11 09:00:12;;;;;;;29.00;12.95;;;;;;;;;;5001132;28;20083;-74
2022/03/11 09:02:38;;;;;;;31.17;14.00;;;;;;;;;;5002535;28;20109;-75
2022/03/11 09:05:05;;;;;;;35.28;14.63;;;;;;;;;;4999360;28;20050;-73
2022/03/11 09:07:32;;;;;;;28.98;13.43;;;;;;;;;;4998245;28;20542;-73
2022/03/11 09:10:03;;;;;;;26.85;12.90;;;;;;;;;;4999530;28;20061;-76
2022/03/11 09:12:29;;;;;;;25.58;12.43;;;;;;;;;;5001081;28;20054;-76
2022/03/11 09:14:55;;;;;;;23.67;13.00;;;;;;;;;;5002991;28;20542;-72
2022/03/11 09:17:22;;;;;;;34.17;13.27;;;;;;;;;;4999507;28;20038;-75
2022/03/11 09:19:47;;;;;;;23.95;13.50;;;;;;;;;;5000369;28;20052;-74
2022/03/11 09:22:14;;;;;;;35.05;13.77;;;;;;;;;;4996197;28;21061;-76
2022/03/11 09:24:41;;;;;;;24.58;13.40;;;;;;;;;;5000903;28;20057;-74
2022/03/11 09:27:09;;;;;;;28.13;14.30;;;;;;;;;;5001065;28;20489;-72
2022/03/11 09:29:35;;;;;;;21.38;12.75;;;;;;;;;;5000320;28;21128;-74
2022/03/11 09:32:03;;;;;;;26.27;13.57;;;;;;;;;;5001253;28;20058;-69
2022/03/11 09:34:29;;;;;;;23.60;12.65;;;;;;;;;;5005021;28;20140;-69
2022/03/11 09:36:55;;;;;;;24.02;12.30;;;;;;;;;;4999064;28;20049;-72
2022/03/11 09:39:22;;;;;;;26.80;12.88;;;;;;;;;;4997746;28;20071;-72
2022/03/11 09:41:49;;;;;;;25.95;13.00;;;;;;;;;;5002299;28;20065;-75
2022/03/11 09:44:19;;;;;;;25.65;13.68;;;;;;;;;;5000358;28;20124;-75
2022/03/11 09:46:46;;;;;;;21.17;12.90;;;;;;;;;;5003069;28;20124;-74
2022/03/11 09:49:12;;;;;;;29.98;13.38;;;;;;;;;;4997236;28;20053;-71
2022/03/11 09:51:41;;;;;;;28.75;14.13;;;;;;;;;;4999361;28;20045;-75
2022/03/11 09:54:08;;;;;;;28.10;13.57;;;;;;;;;;4996247;28;20054;-74
2022/03/11 09:56:41;;;;;;;25.30;13.75;;;;;;;;;;4998278;28;20053;-73
2022/03/11 09:59:09;;;;;;;23.00;14.70;;;;;;;;;;4994641;28;20049;-75
2022/03/11 10:01:35;;;;;;;25.02;13.80;;;;;;;;;;4997455;28;20080;-73
2022/03/11 10:04:05;;;;;;;27.33;13.70;;;;;;;;;;4999931;28;20067;-73
2022/03/11 10:06:45;;;;;;;25.58;13.50;;;;;;;;;;4998122;28;20064;-72
2022/03/11 10:09:17;;;;;;;25.83;12.98;;;;;;;;;;5005353;28;20049;-79
2022/03/11 10:11:49;;;;;;;23.30;10.88;;;;;;;;;;5006450;28;20096;-76
2022/03/11 10:14:16;;;;;;;16.85;9.45;;;;;;;;;;5000625;28;20495;-72
2022/03/11 10:16:46;;;;;;;19.38;9.55;;;;;;;;;;5002936;28;20077;-72
2022/03/11 10:19:13;;;;;;;17.85;9.48;;;;;;;;;;4998726;28;20053;-76
2022/03/11 10:21:45;;;;;;;18.70;9.13;;;;;;;;;;4998560;28;20058;-74
2022/03/11 10:24:21;;;;;;;20.45;9.30;;;;;;;;;;4998450;28;20108;-74
2022/03/11 10:26:50;;;;;;;18.77;8.32;;;;;;;;;;4998159;28;20038;-75
2022/03/11 10:29:20;;;;;;;15.20;9.50;;;;;;;;;;4993095;28;20046;-73
2022/03/11 10:31:49;;;;;;;20.13;10.07;;;;;;;;;;4998825;28;20137;-73
2022/03/11 10:34:33;;;;;;;18.17;9.15;;;;;;;;;;4998174;28;20064;-74
2022/03/11 10:37:02;;;;;;;13.82;8.32;;;;;;;;;;4999003;28;20057;-71
2022/03/11 10:39:46;;;;;;;18.73;9.43;;;;;;;;;;4998204;28;20054;-73
2022/03/11 10:42:12;;;;;;;23.23;10.17;;;;;;;;;;4999978;28;20059;-77
2022/03/11 10:44:39;;;;;;;21.23;10.80;;;;;;;;;;5001999;28;20054;-77
2022/03/11 10:47:20;;;;;;;16.67;8.90;;;;;;;;;;4999047;28;20046;-77
2022/03/11 10:49:51;;;;;;;13.88;6.88;;;;;;;;;;5003375;28;20068;-74
2022/03/11 10:52:44;;;;;;;14.18;7.32;;;;;;;;;;4995700;28;20053;-71
2022/03/11 10:55:28;;;;;;;18.05;8.55;;;;;;;;;;4997992;28;20528;-73
2022/03/11 10:58:04;;;;;;;21.97;8.73;;;;;;;;;;4992619;28;20064;-70
2022/03/11 11:00:42;;;;;;;18.90;8.82;;;;;;;;;;4994128;28;20589;-74
2022/03/11 11:03:09;;;;;;;19.23;9.20;;;;;;;;;;4996425;28;20530;-75
2022/03/11 11:05:37;;;;;;;23.85;9.57;;;;;;;;;;4996038;28;20046;-71
2022/03/11 11:08:05;;;;;;;19.90;8.60;;;;;;;;;;4993341;28;20053;-68
2022/03/11 11:10:34;;;;;;;24.45;8.93;;;;;;;;;;4992141;28;20728;-68
2022/03/11 11:13:01;;;;;;;25.35;11.27;;;;;;;;;;4995074;28;20045;-74
2022/03/11 11:15:27;;;;;;;32.85;17.98;;;;;;;;;;4998347;28;20052;-73
2022/03/11 11:17:54;;;;;;;42.70;20.92;;;;;;;;;;4993049;28;20537;-70
2022/03/11 11:20:38;;;;;;;31.83;18.98;;;;;;;;;;4995981;28;20064;-71
2022/03/11 11:23:06;;;;;;;26.92;16.75;;;;;;;;;;5001664;28;20050;-70
2022/03/11 11:25:33;;;;;;;32.50;17.40;;;;;;;;;;4997628;28;20054;-72
2022/03/11 11:28:12;;;;;;;38.55;18.95;;;;;;;;;;4994192;28;20061;-75
2022/03/11 11:30:39;;;;;;;31.08;16.67;;;;;;;;;;4999007;28;20511;-73
2022/03/11 11:33:05;;;;;;;29.63;16.05;;;;;;;;;;4998577;28;20053;-70
2022/03/11 11:35:37;;;;;;;29.85;16.77;;;;;;;;;;4997360;28;20885;-72
2022/03/11 11:38:05;;;;;;;30.65;16.55;;;;;;;;;;4993090;28;20054;-71
2022/03/11 11:40:35;;;;;;;31.52;15.95;;;;;;;;;;4999357;28;20049;-72
2022/03/11 11:43:13;;;;;;;31.48;16.27;;;;;;;;;;4997504;28;20053;-71
2022/03/11 11:45:40;;;;;;;28.20;16.65;;;;;;;;;;4997644;28;20049;-70
2022/03/11 11:48:06;;;;;;;32.05;17.27;;;;;;;;;;4993742;28;20455;-73
2022/03/11 11:50:43;;;;;;;32.40;16.40;;;;;;;;;;5000639;28;20056;-71
2022/03/11 11:53:09;;;;;;;27.80;14.95;;;;;;;;;;5002611;28;20058;-73
2022/03/11 11:55:40;;;;;;;28.52;14.73;;;;;;;;;;4998291;28;21146;-69
2022/03/11 11:58:22;;;;;;;24.30;14.05;;;;;;;;;;4994007;28;20429;-70
2022/03/11 12:00:54;;;;;;;23.55;13.82;;;;;;;;;;4999416;28;20045;-73
2022/03/11 12:03:48;;;;;;;29.77;14.65;;;;;;;;;;5004055;28;20054;-74
2022/03/11 12:06:51;;;;;;;22.30;11.20;;;;;;;;;;5004059;28;20042;-73
2022/03/11 12:12:15;;;;;;;16.48;8.77;;;;;;;;;;4990462;28;20100;-71
2022/03/11 12:14:57;;;;;;;20.98;9.45;;;;;;;;;;4996202;28;20458;-75
2022/03/11 12:17:51;;;;;;;17.40;9.48;;;;;;;;;;4995387;28;20721;-74
2022/03/11 12:20:32;;;;;;;15.00;7.75;;;;;;;;;;5000208;28;20065;-76
2022/03/11 12:23:08;;;;;;;10.30;6.65;;;;;;;;;;4997633;28;20494;-73
2022/03/11 12:25:45;;;;;;;11.30;6.03;;;;;;;;;;5000547;28;20056;-76
2022/03/11 12:28:33;;;;;;;10.73;5.65;;;;;;;;;;4999366;28;20426;-75
2022/03/11 12:31:00;;;;;;;10.57;5.72;;;;;;;;;;4995850;28;20053;-70
2022/03/11 12:33:39;;;;;;;13.23;6.13;;;;;;;;;;4997606;28;20045;-72
2022/03/11 12:36:11;;;;;;;13.73;6.20;;;;;;;;;;5002685;28;20633;-73
2022/03/11 12:38:39;;;;;;;12.32;5.78;;;;;;;;;;5013142;28;20198;-72
2022/03/11 12:41:09;;;;;;;13.77;6.43;;;;;;;;;;4994779;28;20053;-71
2022/03/11 12:43:35;;;;;;;9.90;6.35;;;;;;;;;;4998467;28;20111;-72
2022/03/11 12:46:03;;;;;;;12.85;6.68;;;;;;;;;;4998469;28;20574;-73
2022/03/11 12:48:33;;;;;;;11.77;5.53;;;;;;;;;;4994122;28;21645;-75
2022/03/11 12:51:01;;;;;;;9.98;5.32;;;;;;;;;;4995622;28;20049;-73
2022/03/11 12:53:27;;;;;;;10.35;6.30;;;;;;;;;;4995398;28;20132;-73
2022/03/11 12:55:55;;;;;;;10.07;5.93;;;;;;;;;;4996982;28;20411;-73
2022/03/11 12:58:32;;;;;;;18.02;7.82;;;;;;;;;;4995445;28;20116;-73
2022/03/11 13:01:07;;;;;;;16.83;7.70;;;;;;;;;;4999981;28;20057;-69
2022/03/11 13:03:35;;;;;;;16.75;7.00;;;;;;;;;;5002926;28;20857;-74
2022/03/11 13:06:11;;;;;;;21.23;7.35;;;;;;;;;;5001336;28;20148;-74
2022/03/11 13:08:39;;;;;;;14.30;7.05;;;;;;;;;;4997292;28;20407;-76
2022/03/11 13:11:07;;;;;;;11.05;6.68;;;;;;;;;;4999341;28;20049;-74
2022/03/11 13:13:33;;;;;;;11.82;6.93;;;;;;;;;;5001001;28;20514;-73
2022/03/11 13:16:01;;;;;;;16.95;8.20;;;;;;;;;;5000859;28;20088;-72
2022/03/11 13:18:33;;;;;;;19.30;6.70;;;;;;;;;;4999965;28;20050;-72
2022/03/11 13:21:01;;;;;;;13.50;7.05;;;;;;;;;;4997810;28;20529;-70
2022/03/11 13:23:29;;;;;;;11.45;6.85;;;;;;;;;;5003883;28;20107;-71
2022/03/11 13:25:55;;;;;;;13.25;6.70;;;;;;;;;;5001459;28;20034;-72
2022/03/11 13:28:35;;;;;;;11.35;5.90;;;;;;;;;;4995367;28;20060;-75
2022/03/11 13:31:31;;;;;;;12.70;6.18;;;;;;;;;;4997519;28;20514;-75
2022/03/11 13:33:57;;;;;;;13.00;6.50;;;;;;;;;;5000481;28;20068;-74
2022/03/11 13:36:25;;;;;;;11.57;6.00;;;;;;;;;;4997536;28;20539;-71
2022/03/11 13:38:54;;;;;;;12.23;6.63;;;;;;;;;;4992240;28;20049;-77
2022/03/11 13:41:46;;;;;;;12.85;5.72;;;;;;;;;;5003305;28;20160;-75
2022/03/11 13:44:38;;;;;;;13.50;6.63;;;;;;;;;;5001286;28;20058;-77
2022/03/11 13:47:14;;;;;;;17.98;6.53;;;;;;;;;;4997933;28;20428;-76
2022/03/11 13:49:50;;;;;;;15.23;6.68;;;;;;;;;;5001102;28;20095;-74
2022/03/11 13:52:19;;;;;;;19.13;6.90;;;;;;;;;;5000359;28;20060;-74
2022/03/11 13:54:47;;;;;;;18.27;7.25;;;;;;;;;;5001659;28;20038;-70
2022/03/11 13:57:19;;;;;;;18.25;6.72;;;;;;;;;;4999657;28;20058;-75
2022/03/11 13:59:47;;;;;;;13.20;6.07;;;;;;;;;;5003306;28;20052;-77
2022/03/11 14:02:16;;;;;;;14.13;6.47;;;;;;;;;;5004144;28;20058;-76
2022/03/11 14:04:42;;;;;;;26.13;6.07;;;;;;;;;;5005910;28;20045;-72
2022/03/11 14:07:09;;;;;;;16.08;6.60;;;;;;;;;;5001446;28;20053;-74
2022/03/11 14:09:35;;;;;;;13.27;6.10;;;;;;;;;;5001706;28;20041;-75
2022/03/11 14:12:01;;;;;;;14.85;6.32;;;;;;;;;;5003700;28;20592;-74
2022/03/11 14:14:30;;;;;;;14.10;7.00;;;;;;;;;;5005867;28;20137;-72
2022/03/11 14:17:05;;;;;;;15.23;6.93;;;;;;;;;;5007428;28;20543;-75
2022/03/11 14:19:32;;;;;;;11.45;6.53;;;;;;;;;;5005117;28;20055;-74
2022/03/11 14:21:58;;;;;;;16.67;6.82;;;;;;;;;;5007575;28;20133;-75
2022/03/11 14:24:24;;;;;;;12.23;6.20;;;;;;;;;;4999424;28;20153;-72
2022/03/11 14:26:50;;;;;;;11.80;6.40;;;;;;;;;;5002334;28;20046;-75
2022/03/11 14:29:17;;;;;;;14.63;7.15;;;;;;;;;;4999870;28;20125;-76
2022/03/11 14:31:43;;;;;;;17.83;7.53;;;;;;;;;;5007316;28;20096;-74
2022/03/11 14:34:10;;;;;;;13.70;7.47;;;;;;;;;;5002061;28;20722;-75